Timra, Sweden

10:47 AM CEST on May 05, 2015 (GMT +0200)
Sundsvall-Harnosand | | Change Station
CLOSE
Current Station
Airport
Location: Sundsvall-Harnosand Airpor,
Elevation: 10 ft
Nearby Weather Stations

Elev 10 ft 62.53 °N, 17.44 °E | Updated 27 minutes ago

Overcast
Overcast
41 °F
Feels Like 36 °F
N
7
Wind Variable Wind from ESE

Today
High -- | Low -- °F
--% Chance of Precip.
Yesterday
High -- | Low -- °F
Precip. -- in
4:22 AM 9:13 PM
Full, 98% visible
Pressure 29.89 in
Visibility 3.1 miles
Clouds Overcast 400 ft
Windchill 36 °F
Dew Point 39 °F
Humidity 93%
Rainfall 0.00 in
Snow Depth Not available.
UV 1 out of 12
Pollen Not available.
Air Quality Not available.
Flu Activity Not available.
METAR ESNN 050820Z 12006KT 5000 BR OVC004 05/04 Q1012

More Conditions Fewer Conditions

Pressure 29.89 in
Visibility 3.1 miles
Clouds Overcast 400 ft
Windchill 36 °F
Dew Point 39 °F
Humidity 93%
Rainfall 0.00 in
Snow Depth Not available.
UV 1 out of 12
Pollen Not available.
Air Quality Not available.
Flu Activity Not available.
METAR ESNN 050820Z 12006KT 5000 BR OVC004 05/04 Q1012

More Conditions Fewer Conditions

10-Day Weather Forecast

Almanac

Astronomy

May. 05, 2015 Rise Set
Actual Time
Civil Twilight
Nautical Twilight
Astronomical Twilight
Moon
Length of Visible Light
Length of Day
Tomorrow will be .
, % of the Moon is Illuminated

Today's Extremes

Country Highs Country Lows

Community

WunderPhotos

Upload Photos

1,818,824 photos uploaded!

WunderBlogs® & News

Nearby

Air Quality

  Air Quality AQ Index Pollutant
Not available.

Snow Depth

Station Depth Elevation

Earthquake Activity

City Distance Mag. Time & Date
Minimum magnitude displayed is 2.5.

Coastal Water Temperatures

Place Temperature

Stations

Nearby Weather Stations

Station Location Temp. Windchill Dew Point Humidity Wind Precip. Elev Updated Type